Time;durP1;ratioP1;P1;durP2;ratioP2;P2;SDS_P1;SDS_P2;PMS_P1;PMS_P2;Temp;Humidity;BMP_temperature;BMP_pressure;BME280_temperature;BME280_humidity;BME280_pressure;Samples;Min_cycle;Max_cycle;Signal;HPM_P1;HPM_P2
2024/01/20 00:00:59;;;;;;;37.88;18.88;;;;;;;-1.08;100.00;102491.34;4825211;29;20050;-71
2024/01/20 00:03:24;;;;;;;38.92;18.83;;;;;;;-1.07;100.00;102493.13;4810568;29;20109;-72
2024/01/20 00:05:49;;;;;;;36.15;15.27;;;;;;;-1.06;100.00;102492.22;4813180;29;20042;-72
2024/01/20 00:08:15;;;;;;;35.28;18.08;;;;;;;-1.03;100.00;102494.00;4821320;29;20443;-71
2024/01/20 00:10:40;;;;;;;40.85;18.52;;;;;;;-1.04;100.00;102499.25;4825575;29;20038;-71
2024/01/20 00:13:06;;;;;;;37.75;16.38;;;;;;;-1.06;100.00;102494.84;4810465;29;20042;-71
2024/01/20 00:15:31;;;;;;;37.45;15.07;;;;;;;-1.03;100.00;102490.47;4826138;29;20394;-72
2024/01/20 00:17:57;;;;;;;43.00;18.40;;;;;;;-1.02;100.00;102500.16;4812351;29;20040;-71
2024/01/20 00:20:22;;;;;;;37.22;17.88;;;;;;;-1.00;100.00;102495.75;4827228;29;20038;-71
2024/01/20 00:22:49;;;;;;;36.03;16.27;;;;;;;-1.01;100.00;102497.53;4818352;29;20113;-71
2024/01/20 00:25:15;;;;;;;38.03;18.38;;;;;;;-0.99;100.00;102503.69;4804921;29;20039;-71
2024/01/20 00:27:40;;;;;;;37.17;18.45;;;;;;;-0.97;100.00;102499.28;4810972;29;20034;-72
2024/01/20 00:30:06;;;;;;;35.80;16.50;;;;;;;-0.95;100.00;102500.16;4823416;29;20114;-71
2024/01/20 00:32:31;;;;;;;35.35;18.45;;;;;;;-0.94;100.00;102495.75;4801534;29;20030;-72
2024/01/20 00:34:56;;;;;;;37.72;16.55;;;;;;;-0.92;100.00;102499.31;4826310;29;20041;-71
2024/01/20 00:37:22;;;;;;;36.70;17.50;;;;;;;-0.95;100.00;102497.53;4823228;29;20055;-72
2024/01/20 00:39:47;;;;;;;37.38;17.15;;;;;;;-0.96;100.00;102494.91;4817944;29;20037;-71
2024/01/20 00:42:12;;;;;;;38.70;16.08;;;;;;;-0.95;100.00;102494.00;4809264;29;20049;-71
2024/01/20 00:44:40;;;;;;;37.67;17.05;;;;;;;-0.93;100.00;102494.91;4811385;29;20040;-71
2024/01/20 00:47:05;;;;;;;38.75;18.05;;;;;;;-0.93;100.00;102498.41;4828033;29;20054;-71
2024/01/20 00:49:31;;;;;;;36.83;17.00;;;;;;;-0.92;100.00;102497.53;4827334;29;20042;-72
2024/01/20 00:51:56;;;;;;;33.67;17.48;;;;;;;-0.94;100.00;102495.75;4826422;29;20052;-72
2024/01/20 00:54:21;;;;;;;37.17;17.55;;;;;;;-0.92;100.00;102501.94;4826182;29;20041;-71
2024/01/20 00:56:47;;;;;;;38.55;18.55;;;;;;;-0.93;100.00;102501.03;4819910;29;20101;-72
2024/01/20 00:59:12;;;;;;;33.67;16.33;;;;;;;-0.91;100.00;102493.13;4823281;29;20041;-72
2024/01/20 01:01:37;;;;;;;40.85;19.30;;;;;;;-0.93;100.00;102492.25;4818430;29;20086;-72
2024/01/20 01:04:03;;;;;;;40.42;16.00;;;;;;;-0.94;100.00;102495.75;4811882;29;20043;-74
2024/01/20 01:06:28;;;;;;;34.13;15.68;;;;;;;-0.90;100.00;102490.47;4809730;29;20026;-75
2024/01/20 01:08:53;;;;;;;38.80;17.45;;;;;;;-0.91;100.00;102493.13;4812508;29;20101;-74
2024/01/20 01:11:19;;;;;;;36.83;16.10;;;;;;;-0.93;100.00;102492.25;4813974;29;20124;-74
2024/01/20 01:13:44;;;;;;;38.25;15.60;;;;;;;-0.92;100.00;102496.66;4824468;29;20093;-74
2024/01/20 01:16:09;;;;;;;32.63;15.35;;;;;;;-0.94;100.00;102495.75;4823440;29;20129;-75
2024/01/20 01:18:34;;;;;;;37.15;15.23;;;;;;;-0.96;100.00;102493.13;4824529;29;20033;-75
2024/01/20 01:21:00;;;;;;;33.88;16.33;;;;;;;-0.98;100.00;102497.53;4828382;29;20092;-75
2024/01/20 01:23:25;;;;;;;39.42;15.93;;;;;;;-0.97;100.00;102493.13;4821144;29;20577;-73
2024/01/20 01:25:52;;;;;;;33.60;15.15;;;;;;;-1.00;100.00;102501.03;4812154;29;20068;-75
2024/01/20 01:28:17;;;;;;;36.28;15.57;;;;;;;-0.99;100.00;102495.75;4826773;29;20129;-75
2024/01/20 01:30:42;;;;;;;38.47;14.18;;;;;;;-0.99;100.00;102501.03;4821241;29;20116;-74
2024/01/20 01:33:07;;;;;;;36.03;15.65;;;;;;;-1.02;100.00;102503.69;4812029;29;20448;-74
2024/01/20 01:35:33;;;;;;;34.30;15.88;;;;;;;-1.01;100.00;102505.44;4806556;29;20035;-74
2024/01/20 01:37:58;;;;;;;31.25;15.20;;;;;;;-1.00;100.00;102501.03;4825465;29;20113;-74
2024/01/20 01:40:25;;;;;;;34.08;16.27;;;;;;;-0.98;100.00;102515.09;4825190;29;20042;-75
2024/01/20 01:42:56;;;;;;;37.42;16.23;;;;;;;-0.96;100.00;102510.72;4822074;29;20072;-74
2024/01/20 01:45:21;;;;;;;34.20;15.75;;;;;;;-0.98;100.00;102504.53;4824116;29;22142;-74
2024/01/20 01:47:47;;;;;;;31.27;15.68;;;;;;;-0.98;100.00;102512.47;4833448;29;20073;-74
2024/01/20 01:50:12;;;;;;;31.42;15.05;;;;;;;-0.96;100.00;102510.72;4823647;29;20038;-74
2024/01/20 01:52:38;;;;;;;33.70;16.35;;;;;;;-0.96;100.00;102516.88;4834904;29;20534;-73
2024/01/20 01:55:04;;;;;;;38.88;16.13;;;;;;;-0.95;100.00;102512.47;4836583;29;20143;-75
2024/01/20 01:57:30;;;;;;;33.80;16.05;;;;;;;-0.98;100.00;102513.38;4830778;29;20026;-74
2024/01/20 01:59:57;;;;;;;33.75;15.88;;;;;;;-1.00;100.00;102522.16;4829701;29;20041;-75
2024/01/20 02:02:23;;;;;;;35.88;15.68;;;;;;;-1.00;100.00;102524.78;4832045;29;20033;-72
2024/01/20 02:04:48;;;;;;;33.60;16.15;;;;;;;-0.99;100.00;102537.13;4840242;29;20495;-71
2024/01/20 02:07:15;;;;;;;36.03;16.77;;;;;;;-1.01;100.00;102534.47;4837296;29;20029;-72
2024/01/20 02:09:41;;;;;;;32.67;15.73;;;;;;;-1.01;100.00;102538.84;4837719;29;20036;-72
2024/01/20 02:12:07;;;;;;;37.83;16.25;;;;;;;-1.04;100.00;102529.16;4824943;29;20185;-72
2024/01/20 02:14:34;;;;;;;31.42;14.38;;;;;;;-1.02;100.00;102542.38;4840521;29;20034;-72
2024/01/20 02:16:59;;;;;;;33.47;15.60;;;;;;;-1.03;100.00;102535.34;4824238;29;20498;-72
2024/01/20 02:19:24;;;;;;;33.63;15.15;;;;;;;-1.06;100.00;102537.06;4840574;29;20035;-72
2024/01/20 02:21:50;;;;;;;38.85;15.80;;;;;;;-1.07;100.00;102539.72;4839511;29;20537;-71
2024/01/20 02:24:15;;;;;;;34.83;14.52;;;;;;;-1.08;100.00;102543.25;4839254;29;20090;-71
2024/01/20 02:26:40;;;;;;;35.28;17.13;;;;;;;-1.10;100.00;102543.25;4830367;29;20026;-71
2024/01/20 02:29:06;;;;;;;33.70;15.35;;;;;;;-1.09;100.00;102539.72;4836590;29;20060;-72
2024/01/20 02:31:31;;;;;;;32.28;15.57;;;;;;;-1.08;100.00;102548.53;4840413;29;20506;-71
2024/01/20 02:33:56;;;;;;;31.58;16.13;;;;;;;-1.07;100.00;102551.16;4829058;29;20026;-71
2024/01/20 02:36:21;;;;;;;35.78;15.55;;;;;;;-1.04;100.00;102552.03;4837848;29;20030;-71
2024/01/20 02:38:48;;;;;;;37.25;15.88;;;;;;;-1.02;100.00;102552.94;4837828;29;20040;-71
2024/01/20 02:41:13;;;;;;;32.08;14.35;;;;;;;-0.99;100.00;102552.94;4839142;29;20105;-72
2024/01/20 02:43:38;;;;;;;33.95;14.88;;;;;;;-0.95;100.00;102555.59;4823715;29;20121;-71
2024/01/20 02:46:03;;;;;;;38.55;17.73;;;;;;;-0.92;100.00;102552.97;4830657;29;20355;-72
2024/01/20 02:48:29;;;;;;;31.23;14.93;;;;;;;-0.92;100.00;102544.19;4825833;29;20050;-71
2024/01/20 02:50:55;;;;;;;34.67;16.05;;;;;;;-0.92;100.00;102545.03;4805505;29;20090;-71
2024/01/20 02:53:20;;;;;;;38.63;16.63;;;;;;;-0.94;100.00;102535.34;4826740;29;20451;-72
2024/01/20 02:55:45;;;;;;;34.10;15.07;;;;;;;-0.92;100.00;102544.19;4811553;29;20287;-71
2024/01/20 02:58:11;;;;;;;36.42;15.00;;;;;;;-0.94;100.00;102532.72;4830897;29;20082;-71
2024/01/20 03:00:36;;;;;;;33.03;16.20;;;;;;;-0.96;100.00;102538.00;4828280;29;20464;-72
2024/01/20 03:03:01;;;;;;;34.83;16.40;;;;;;;-0.96;100.00;102542.41;4832887;29;20136;-73
2024/01/20 03:05:27;;;;;;;31.48;15.57;;;;;;;-0.97;100.00;102553.81;4840255;29;20113;-72
2024/01/20 03:07:52;;;;;;;33.95;15.45;;;;;;;-0.99;100.00;102559.09;4844026;29;20022;-73
2024/01/20 03:10:17;;;;;;;35.05;15.38;;;;;;;-0.97;100.00;102559.09;4841101;29;20068;-73
2024/01/20 03:12:43;;;;;;;33.47;15.30;;;;;;;-0.97;100.00;102561.75;4828397;29;20037;-73
2024/01/20 03:15:09;;;;;;;32.50;16.33;;;;;;;-0.95;100.00;102565.25;4838163;29;20034;-72
2024/01/20 03:17:34;;;;;;;33.28;15.18;;;;;;;-0.97;100.00;102572.28;4835167;29;20026;-72
2024/01/20 03:19:59;;;;;;;36.13;16.77;;;;;;;-0.97;100.00;102569.66;4844606;29;20040;-72
2024/01/20 03:22:25;;;;;;;34.03;15.20;;;;;;;-0.95;100.00;102565.25;4825577;29;20572;-72
2024/01/20 03:24:50;;;;;;;35.08;15.80;;;;;;;-0.96;100.00;102568.78;4810920;29;20095;-72
2024/01/20 03:27:19;;;;;;;32.20;16.33;;;;;;;-0.98;100.00;102565.25;4807616;29;20114;-72
2024/01/20 03:29:44;;;;;;;36.40;16.42;;;;;;;-0.97;100.00;102574.94;4819174;29;20041;-71
2024/01/20 03:32:10;;;;;;;31.70;14.25;;;;;;;-0.95;100.00;102568.78;4806885;29;20044;-71
2024/01/20 03:34:36;;;;;;;37.45;15.13;;;;;;;-0.91;100.00;102573.22;4813689;29;20058;-71
2024/01/20 03:37:01;;;;;;;32.42;14.70;;;;;;;-0.92;100.00;102571.44;4820215;29;20109;-72
2024/01/20 03:39:27;;;;;;;32.70;15.05;;;;;;;-0.91;100.00;102572.31;4824599;29;20040;-71
2024/01/20 03:41:52;;;;;;;32.50;15.00;;;;;;;-0.96;100.00;102569.66;4818299;29;20038;-71
2024/01/20 03:44:17;;;;;;;29.73;13.65;;;;;;;-0.94;100.00;102572.31;4825806;29;20030;-71
2024/01/20 03:46:43;;;;;;;32.15;14.32;;;;;;;-0.95;100.00;102571.44;4829794;29;20029;-72
2024/01/20 03:49:08;;;;;;;34.90;14.75;;;;;;;-0.92;100.00;102574.06;4826514;29;20130;-71
2024/01/20 03:51:33;;;;;;;32.00;14.48;;;;;;;-0.90;100.00;102576.72;4820718;29;20042;-71
2024/01/20 03:53:59;;;;;;;40.35;16.00;;;;;;;-0.89;100.00;102565.28;4807728;29;20041;-72
2024/01/20 03:56:24;;;;;;;34.00;16.38;;;;;;;-0.90;100.00;102574.06;4826454;29;20034;-72
2024/01/20 03:58:50;;;;;;;31.88;14.00;;;;;;;-0.91;100.00;102569.66;4818409;29;20574;-71
2024/01/20 04:01:15;;;;;;;35.28;16.48;;;;;;;-0.89;100.00;102562.66;4827601;29;20038;-71
2024/01/20 04:03:40;;;;;;;35.60;15.63;;;;;;;-0.92;100.00;102566.16;4816937;29;20073;-71
2024/01/20 04:06:06;;;;;;;32.85;15.90;;;;;;;-0.90;100.00;102576.72;4828897;29;20065;-71
2024/01/20 04:08:31;;;;;;;30.63;12.60;;;;;;;-0.92;100.00;102571.44;4812359;29;20038;-71
2024/01/20 04:10:56;;;;;;;30.52;13.23;;;;;;;-0.92;100.00;102570.56;4817123;29;20396;-71
2024/01/20 04:13:21;;;;;;;35.17;15.88;;;;;;;-0.94;100.00;102567.03;4823968;29;20034;-71
2024/01/20 04:15:47;;;;;;;32.78;14.40;;;;;;;-0.93;100.00;102569.66;4823182;29;20037;-72
2024/01/20 04:18:13;;;;;;;32.63;14.95;;;;;;;-0.90;100.00;102574.06;4826208;29;20034;-72
2024/01/20 04:20:38;;;;;;;32.42;15.40;;;;;;;-0.91;100.00;102578.47;4819350;29;20269;-72
2024/01/20 04:23:03;;;;;;;35.30;15.80;;;;;;;-0.89;100.00;102582.00;4820359;29;20483;-72
2024/01/20 04:25:29;;;;;;;30.15;14.80;;;;;;;-0.88;100.00;102583.78;4809442;29;20081;-72
2024/01/20 04:27:54;;;;;;;32.88;15.80;;;;;;;-0.88;100.00;102590.78;4825344;29;20089;-72
2024/01/20 04:30:20;;;;;;;30.88;13.88;;;;;;;-0.89;100.00;102587.28;4823501;29;20038;-72
2024/01/20 04:32:45;;;;;;;38.70;17.02;;;;;;;-0.89;100.00;102587.28;4821822;29;20144;-71
2024/01/20 04:35:10;;;;;;;35.17;15.60;;;;;;;-0.90;100.00;102595.19;4824026;29;20038;-71
2024/01/20 04:37:38;;;;;;;31.60;14.57;;;;;;;-0.92;100.00;102591.69;4816651;29;20069;-71
2024/01/20 04:40:04;;;;;;;32.25;15.15;;;;;;;-0.90;100.00;102598.69;4817299;29;20038;-71
2024/01/20 04:42:29;;;;;;;31.45;15.52;;;;;;;-0.88;100.00;102601.34;4822253;29;20056;-71
2024/01/20 04:44:54;;;;;;;32.58;15.63;;;;;;;-0.89;100.00;102596.97;4811436;29;20034;-72
2024/01/20 04:47:20;;;;;;;29.90;13.98;;;;;;;-0.90;100.00;102600.47;4806970;29;20082;-71
2024/01/20 04:49:45;;;;;;;32.55;13.63;;;;;;;-0.91;100.00;102596.06;4817821;29;20078;-71
2024/01/20 04:52:10;;;;;;;36.55;16.10;;;;;;;-0.90;100.00;102609.25;4804106;29;20050;-72
2024/01/20 04:54:36;;;;;;;46.10;17.55;;;;;;;-0.90;100.00;102605.75;4808802;29;20208;-71
2024/01/20 04:57:01;;;;;;;31.95;15.35;;;;;;;-0.95;100.00;102604.84;4819865;29;20499;-72
2024/01/20 04:59:27;;;;;;;32.20;15.13;;;;;;;-0.95;100.00;102595.19;4816943;29;20162;-71
2024/01/20 05:01:52;;;;;;;29.88;12.55;;;;;;;-0.94;100.00;102603.97;4819952;29;20113;-72
2024/01/20 05:04:18;;;;;;;31.90;14.77;;;;;;;-0.97;100.00;102598.69;4819693;29;20057;-71
2024/01/20 05:06:45;;;;;;;30.75;13.60;;;;;;;-1.00;100.00;102593.41;4806342;29;20029;-72
2024/01/20 05:09:14;;;;;;;33.20;14.13;;;;;;;-1.01;100.00;102597.81;4815222;29;20030;-72
2024/01/20 05:11:40;;;;;;;31.83;14.48;;;;;;;-1.02;100.00;102601.31;4815600;29;20058;-71
2024/01/20 05:14:06;;;;;;;33.92;14.63;;;;;;;-1.02;100.00;102600.44;4806458;29;20030;-71
2024/01/20 05:16:31;;;;;;;33.35;15.30;;;;;;;-1.05;100.00;102606.59;4807028;29;20049;-71
2024/01/20 05:18:57;;;;;;;29.85;12.48;;;;;;;-1.05;100.00;102606.59;4819085;29;20483;-72
2024/01/20 05:21:22;;;;;;;34.97;14.95;;;;;;;-1.06;100.00;102610.09;4802690;29;20030;-71
2024/01/20 05:23:48;;;;;;;35.75;15.85;;;;;;;-1.06;100.00;102608.31;4819704;29;20042;-72
2024/01/20 05:26:14;;;;;;;34.60;14.73;;;;;;;-1.04;100.00;102613.59;4814312;29;20061;-71
2024/01/20 05:28:40;;;;;;;30.33;12.82;;;;;;;-1.02;100.00;102611.00;4818444;29;20030;-72
2024/01/20 05:31:05;;;;;;;31.20;12.00;;;;;;;-1.03;100.00;102609.22;4804251;29;20129;-71
2024/01/20 05:33:30;;;;;;;34.83;14.20;;;;;;;-1.03;100.00;102604.81;4808643;29;20314;-71
2024/01/20 05:35:56;;;;;;;31.08;14.10;;;;;;;-1.06;100.00;102605.69;4818717;29;20141;-72
2024/01/20 05:38:21;;;;;;;31.77;14.38;;;;;;;-1.07;100.00;102614.50;4818525;29;20117;-71
2024/01/20 05:40:46;;;;;;;31.67;13.85;;;;;;;-1.05;100.00;102617.16;4813180;29;20078;-72
2024/01/20 05:43:12;;;;;;;31.42;13.60;;;;;;;-1.07;100.00;102619.78;4819851;29;20129;-72
2024/01/20 05:45:37;;;;;;;29.90;14.35;;;;;;;-1.06;100.00;102610.97;4806713;29;20035;-72
2024/01/20 05:48:03;;;;;;;28.88;12.63;;;;;;;-1.05;100.00;102609.22;4828900;29;20366;-71
2024/01/20 05:50:29;;;;;;;29.00;13.35;;;;;;;-1.03;100.00;102623.28;4819243;29;20053;-71
2024/01/20 05:52:54;;;;;;;32.25;13.45;;;;;;;-1.04;100.00;102618.00;4815175;29;20475;-71
2024/01/20 05:55:19;;;;;;;31.02;12.75;;;;;;;-1.05;100.00;102627.69;4837190;29;20179;-71
2024/01/20 05:57:45;;;;;;;32.60;13.68;;;;;;;-1.03;100.00;102625.06;4823882;29;20102;-71
2024/01/20 06:00:10;;;;;;;29.23;12.57;;;;;;;-1.07;100.00;102632.97;4826423;29;20050;-71
2024/01/20 06:02:36;;;;;;;32.28;13.43;;;;;;;-1.08;100.00;102630.34;4836571;29;20037;-71
2024/01/20 06:05:01;;;;;;;28.90;13.35;;;;;;;-1.07;100.00;102634.72;4837256;29;20482;-71
2024/01/20 06:07:27;;;;;;;34.92;14.18;;;;;;;-1.08;100.00;102633.84;4836774;29;20450;-72
2024/01/20 06:09:52;;;;;;;31.45;14.88;;;;;;;-1.06;100.00;102644.41;4835982;29;20133;-71
2024/01/20 06:12:17;;;;;;;28.77;13.18;;;;;;;-1.03;100.00;102640.91;4836574;29;20671;-72
2024/01/20 06:14:44;;;;;;;34.40;14.27;;;;;;;-1.04;100.00;102641.75;4835918;29;20132;-72
2024/01/20 06:17:09;;;;;;;27.83;13.75;;;;;;;-1.06;100.00;102644.41;4835482;29;20038;-72
2024/01/20 06:19:34;;;;;;;30.73;14.70;;;;;;;-1.04;100.00;102644.41;4823699;29;20041;-72
2024/01/20 06:21:59;;;;;;;29.38;13.55;;;;;;;-1.04;100.00;102639.13;4835831;29;20065;-72
2024/01/20 06:24:25;;;;;;;34.42;15.25;;;;;;;-1.04;100.00;102644.41;4831187;29;20052;-72
2024/01/20 06:26:50;;;;;;;32.08;13.50;;;;;;;-1.06;100.00;102642.63;4836025;29;20070;-71
2024/01/20 06:29:15;;;;;;;28.60;12.90;;;;;;;-1.07;100.00;102651.44;4822998;29;20065;-71
2024/01/20 06:31:40;;;;;;;28.48;11.70;;;;;;;-1.08;100.00;102662.88;4821629;29;20163;-71
2024/01/20 06:34:06;;;;;;;31.17;12.55;;;;;;;-1.06;100.00;102660.22;4826381;29;20034;-72
2024/01/20 06:36:31;;;;;;;28.42;11.80;;;;;;;-1.07;100.00;102655.81;4833114;29;20030;-72
2024/01/20 06:38:57;;;;;;;32.05;12.73;;;;;;;-1.04;100.00;102654.97;4836078;29;20034;-72
2024/01/20 06:41:22;;;;;;;32.88;14.20;;;;;;;-1.07;100.00;102664.63;4835060;29;20078;-71
2024/01/20 06:43:47;;;;;;;28.13;11.85;;;;;;;-1.06;100.00;102663.75;4835880;29;20042;-71
2024/01/20 06:46:13;;;;;;;35.78;13.95;;;;;;;-1.06;100.00;102663.75;4837044;29;20104;-71
2024/01/20 06:48:38;;;;;;;31.77;14.02;;;;;;;-1.06;100.00;102662.88;4827754;29;20526;-71
2024/01/20 06:51:04;;;;;;;29.48;12.45;;;;;;;-1.12;100.00;102663.72;4825674;29;20048;-71
2024/01/20 06:53:30;;;;;;;33.85;13.27;;;;;;;-1.11;100.00;102680.47;4823187;29;20073;-72
2024/01/20 06:55:56;;;;;;;31.75;13.27;;;;;;;-1.06;100.00;102681.34;4809855;29;20030;-71
2024/01/20 06:58:21;;;;;;;27.38;11.82;;;;;;;-1.03;100.00;102675.19;4822629;29;20090;-71
2024/01/20 07:00:47;;;;;;;28.33;12.25;;;;;;;-1.01;100.00;102670.81;4815516;29;20600;-72
2024/01/20 07:03:12;;;;;;;29.88;13.43;;;;;;;-1.00;100.00;102680.50;4828728;29;20745;-71
2024/01/20 07:05:37;;;;;;;28.05;13.20;;;;;;;-1.03;100.00;102683.13;4816417;29;20038;-71
2024/01/20 07:08:04;;;;;;;29.55;12.65;;;;;;;-1.06;100.00;102681.34;4821046;29;20082;-71
2024/01/20 07:10:29;;;;;;;26.88;11.02;;;;;;;-1.08;100.00;102677.81;4824602;29;20133;-72
2024/01/20 07:12:55;;;;;;;29.20;12.98;;;;;;;-1.09;100.00;102684.84;4827560;29;20042;-72
2024/01/20 07:15:20;;;;;;;28.55;12.35;;;;;;;-1.09;100.00;102684.84;4828243;29;20030;-72
2024/01/20 07:17:45;;;;;;;30.27;13.07;;;;;;;-1.11;100.00;102681.31;4824115;29;20531;-72
2024/01/20 07:20:11;;;;;;;29.45;12.52;;;;;;;-1.11;100.00;102688.38;4819644;29;20131;-72
2024/01/20 07:22:36;;;;;;;29.38;13.65;;;;;;;-1.10;100.00;102683.09;4804130;29;20038;-72
2024/01/20 07:25:02;;;;;;;28.30;13.10;;;;;;;-1.11;100.00;102685.72;4828372;29;20031;-72
2024/01/20 07:27:28;;;;;;;30.45;13.40;;;;;;;-1.11;100.00;102683.09;4825148;29;20068;-72
2024/01/20 07:29:53;;;;;;;34.90;13.20;;;;;;;-1.12;100.00;102679.56;4826861;29;20487;-71
2024/01/20 07:32:19;;;;;;;27.35;13.00;;;;;;;-1.15;100.00;102684.81;4809183;29;20459;-71
2024/01/20 07:34:45;;;;;;;32.90;13.88;;;;;;;-1.14;100.00;102683.06;4830107;29;20112;-72
2024/01/20 07:37:10;;;;;;;29.80;13.00;;;;;;;-1.16;100.00;102683.03;4825705;29;20455;-72
2024/01/20 07:39:35;;;;;;;29.30;11.73;;;;;;;-1.17;100.00;102685.69;4815278;29;20034;-72
2024/01/20 07:42:00;;;;;;;29.38;12.80;;;;;;;-1.16;100.00;102688.31;4827015;29;20037;-72
2024/01/20 07:44:26;;;;;;;29.27;11.95;;;;;;;-1.18;100.00;102687.44;4811112;29;20128;-70
2024/01/20 07:46:51;;;;;;;29.20;12.98;;;;;;;-1.21;100.00;102689.19;4802097;29;20518;-70
2024/01/20 07:49:16;;;;;;;30.50;13.70;;;;;;;-1.20;100.00;102677.75;4835670;29;20041;-70
2024/01/20 07:51:41;;;;;;;30.73;14.48;;;;;;;-1.20;100.00;102691.84;4839157;29;20037;-69
2024/01/20 07:54:07;;;;;;;29.55;12.73;;;;;;;-1.22;100.00;102701.47;4829070;29;20461;-70
2024/01/20 07:56:32;;;;;;;36.33;13.23;;;;;;;-1.22;100.00;102706.75;4836547;29;20150;-69
2024/01/20 07:58:57;;;;;;;32.53;13.90;;;;;;;-1.20;100.00;102707.69;4836086;29;20116;-71
2024/01/20 08:01:23;;;;;;;27.98;13.80;;;;;;;-1.17;100.00;102699.78;4837737;29;20442;-70
2024/01/20 08:03:48;;;;;;;33.70;14.63;;;;;;;-1.15;100.00;102708.56;4835609;29;20034;-70
2024/01/20 08:06:13;;;;;;;32.05;14.65;;;;;;;-1.11;100.00;102709.47;4825628;29;20026;-70
2024/01/20 08:08:39;;;;;;;28.73;13.35;;;;;;;-1.08;100.00;102709.50;4839032;29;20037;-69
2024/01/20 08:11:04;;;;;;;30.15;13.30;;;;;;;-1.09;100.00;102705.09;4834393;29;20033;-69
2024/01/20 08:13:30;;;;;;;28.25;13.63;;;;;;;-1.11;100.00;102698.94;4834843;29;20046;-70
2024/01/20 08:15:55;;;;;;;34.85;14.52;;;;;;;-1.14;100.00;102709.44;4821677;29;20779;-70
2024/01/20 08:18:20;;;;;;;29.92;13.40;;;;;;;-1.16;100.00;102703.28;4827187;29;20034;-69
2024/01/20 08:20:46;;;;;;;30.42;13.02;;;;;;;-1.16;100.00;102712.06;4832348;29;20041;-71
2024/01/20 08:23:11;;;;;;;30.92;14.50;;;;;;;-1.14;100.00;102718.25;4832483;29;20124;-70
2024/01/20 08:25:36;;;;;;;31.05;13.73;;;;;;;-1.10;100.00;102717.41;4832937;29;20034;-70
2024/01/20 08:28:02;;;;;;;30.55;14.13;;;;;;;-1.09;100.00;102724.44;4822545;29;20057;-70
2024/01/20 08:30:28;;;;;;;33.08;16.15;;;;;;;-1.07;100.00;102717.41;4823422;29;20383;-70
2024/01/20 08:32:53;;;;;;;32.58;13.05;;;;;;;-1.06;100.00;102729.72;4824937;29;20058;-70
2024/01/20 08:35:18;;;;;;;29.80;14.02;;;;;;;-1.06;100.00;102719.16;4836531;29;20462;-69
2024/01/20 08:37:44;;;;;;;33.33;14.60;;;;;;;-1.01;100.00;102721.84;4837845;29;20038;-73
2024/01/20 08:40:09;;;;;;;28.63;12.13;;;;;;;-0.96;100.00;102720.09;4816875;29;20041;-70
2024/01/20 08:42:34;;;;;;;28.88;12.90;;;;;;;-0.92;100.00;102728.94;4836648;29;20469;-69
2024/01/20 08:45:00;;;;;;;30.20;13.88;;;;;;;-0.89;100.00;102727.19;4833498;29;20039;-69
2024/01/20 08:47:25;;;;;;;32.05;14.00;;;;;;;-0.89;100.00;102739.50;4831998;29;20054;-69
2024/01/20 08:49:53;;;;;;;29.23;11.75;;;;;;;-0.86;100.00;102733.34;4795167;29;20026;-68
2024/01/20 08:52:19;;;;;;;28.77;12.55;;;;;;;-0.86;100.00;102735.97;4826483;29;20333;-71
2024/01/20 08:54:44;;;;;;;28.88;12.45;;;;;;;-0.88;100.00;102735.97;4815627;29;20054;-72
2024/01/20 08:57:10;;;;;;;29.27;13.00;;;;;;;-0.86;100.00;102736.88;4835260;29;20044;-72
2024/01/20 08:59:35;;;;;;;29.50;12.30;;;;;;;-0.87;100.00;102732.47;4841449;29;20030;-73
2024/01/20 09:02:01;;;;;;;29.98;13.68;;;;;;;-0.87;100.00;102743.03;4830972;29;20483;-71
2024/01/20 09:04:26;;;;;;;27.85;12.35;;;;;;;-0.87;100.00;102735.09;4836120;29;20042;-72
2024/01/20 09:06:51;;;;;;;32.38;13.18;;;;;;;-0.89;100.00;102731.59;4846364;29;20026;-71
2024/01/20 09:09:18;;;;;;;27.73;11.95;;;;;;;-0.87;100.00;102743.03;4827315;29;20025;-71
2024/01/20 09:11:43;;;;;;;29.27;12.88;;;;;;;-0.86;100.00;102741.25;4836145;29;20057;-73
2024/01/20 09:14:09;;;;;;;28.58;12.88;;;;;;;-0.88;100.00;102743.88;4828560;29;20042;-71
2024/01/20 09:16:34;;;;;;;31.38;13.85;;;;;;;-0.88;100.00;102744.78;4832740;29;20141;-72
2024/01/20 09:18:59;;;;;;;28.83;12.85;;;;;;;-0.87;100.00;102750.94;4829554;29;20448;-72
2024/01/20 09:21:24;;;;;;;29.60;12.45;;;;;;;-0.90;100.00;102749.16;4837017;29;20042;-72
2024/01/20 09:23:51;;;;;;;26.05;11.63;;;;;;;-0.89;100.00;102757.97;4834121;29;20034;-71
2024/01/20 09:26:16;;;;;;;31.45;14.32;;;;;;;-0.90;100.00;102750.94;4819377;29;20022;-72
2024/01/20 09:28:42;;;;;;;26.30;11.60;;;;;;;-0.90;100.00;102764.13;4838645;29;20030;-72
2024/01/20 09:31:07;;;;;;;27.77;13.52;;;;;;;-0.89;100.00;102763.25;4830369;29;20045;-73
2024/01/20 09:33:32;;;;;;;30.95;12.52;;;;;;;-0.85;100.00;102758.88;4835535;29;20022;-72
2024/01/20 09:35:58;;;;;;;30.85;14.88;;;;;;;-0.80;100.00;102752.72;4834925;29;20034;-73
2024/01/20 09:38:26;;;;;;;32.30;14.68;;;;;;;-0.77;100.00;102750.09;4843931;29;20281;-71
2024/01/20 09:40:52;;;;;;;31.08;12.43;;;;;;;-0.70;100.00;102761.59;4840528;29;20516;-73
2024/01/20 09:43:18;;;;;;;30.48;12.27;;;;;;;-0.76;100.00;102765.09;4844302;29;20030;-71
2024/01/20 09:45:45;;;;;;;32.45;14.13;;;;;;;-0.73;100.00;102762.44;4827866;29;20148;-71
2024/01/20 09:48:10;;;;;;;31.27;13.73;;;;;;;-0.73;100.00;102769.50;4846535;29;20073;-71
2024/01/20 09:50:36;;;;;;;29.50;13.88;;;;;;;-0.74;100.00;102778.28;4858836;29;20172;-72
2024/01/20 09:53:15;;;;;;;32.00;13.88;;;;;;;-0.74;100.00;102781.81;4862080;29;20026;-71
2024/01/20 09:55:42;;;;;;;31.23;12.77;;;;;;;-0.77;100.00;102780.91;4857718;29;20304;-73
2024/01/20 09:58:10;;;;;;;28.50;12.27;;;;;;;-0.77;100.00;102773.88;4861227;29;20103;-71
2024/01/20 10:00:36;;;;;;;29.02;14.05;;;;;;;-0.72;100.00;102773.88;4855110;29;20036;-73
2024/01/20 10:03:07;;;;;;;27.75;11.82;;;;;;;-0.63;100.00;102778.31;4840191;29;20031;-72
2024/01/20 10:05:33;;;;;;;29.75;13.75;;;;;;;-0.58;100.00;102782.75;4849299;29;20030;-69
2024/01/20 10:07:59;;;;;;;27.27;11.80;;;;;;;-0.55;100.00;102773.97;4840145;29;20476;-69
2024/01/20 10:10:24;;;;;;;29.95;12.95;;;;;;;-0.57;100.00;102781.88;4838902;29;20045;-69
2024/01/20 10:12:54;;;;;;;29.75;12.57;;;;;;;-0.57;100.00;102791.56;4839394;29;20059;-70
2024/01/20 10:15:21;;;;;;;32.70;13.80;;;;;;;-0.58;100.00;102781.88;4842674;29;20471;-69
2024/01/20 10:17:47;;;;;;;33.63;13.38;;;;;;;-0.57;100.00;102783.63;4843763;29;20045;-69
2024/01/20 10:20:23;;;;;;;30.65;14.50;;;;;;;-0.52;100.00;102784.53;4842736;29;20028;-69
2024/01/20 10:22:49;;;;;;;30.77;12.93;;;;;;;-0.47;100.00;102790.75;4832063;29;20069;-68
2024/01/20 10:25:19;;;;;;;30.63;14.40;;;;;;;-0.47;100.00;102788.09;4825907;29;20458;-69
2024/01/20 10:27:49;;;;;;;31.30;12.57;;;;;;;-0.43;100.00;102776.66;4824668;29;20094;-69
2024/01/20 10:30:20;;;;;;;26.40;11.20;;;;;;;-0.40;100.00;102771.38;4844710;29;20037;-70
2024/01/20 10:32:46;;;;;;;27.88;11.55;;;;;;;-0.36;100.00;102777.56;4819823;29;20504;-69
2024/01/20 10:35:11;;;;;;;28.33;11.88;;;;;;;-0.38;100.00;102761.72;4847704;29;20038;-69
2024/01/20 10:37:42;;;;;;;29.30;12.95;;;;;;;-0.34;100.00;102767.88;4850581;29;20065;-69
2024/01/20 10:40:15;;;;;;;29.98;12.50;;;;;;;-0.30;100.00;102766.13;4840980;29;20089;-69
2024/01/20 10:42:44;;;;;;;28.60;11.82;;;;;;;-0.27;100.00;102766.16;4848579;29;20025;-69
2024/01/20 10:45:14;;;;;;;31.55;12.80;;;;;;;-0.25;100.00;102767.00;4821852;29;20494;-69
2024/01/20 10:47:43;;;;;;;31.70;13.05;;;;;;;-0.25;100.00;102767.00;4842224;29;20133;-69
2024/01/20 10:50:09;;;;;;;28.30;12.15;;;;;;;-0.21;100.00;102763.50;4836806;29;20081;-69
2024/01/20 10:52:35;;;;;;;27.20;12.05;;;;;;;-0.18;100.00;102760.88;4831359;29;20062;-71
2024/01/20 10:55:03;;;;;;;28.77;11.60;;;;;;;-0.25;100.00;102769.66;4836061;29;20048;-71